Time;durP1;ratioP1;P1;durP2;ratioP2;P2;SDS_P1;SDS_P2;PMS_P1;PMS_P2;Temp;Humidity;BMP_temperature;BMP_pressure;BME280_temperature;BME280_humidity;BME280_pressure;Samples;Min_cycle;Max_cycle;Signal;HPM_P1;HPM_P2
2022/10/29 00:01:31;;;;;;;2.15;1.95;;;;;;;19.53;61.22;97594.16;10291649;28;20113;-63
2022/10/29 00:06:50;;;;;;;2.05;1.90;;;;;;;19.53;61.22;97591.47;10293127;28;20058;-61
2022/10/29 00:12:09;;;;;;;1.98;1.83;;;;;;;19.51;61.23;97588.28;10327100;28;20851;-61
2022/10/29 00:17:29;;;;;;;1.95;1.85;;;;;;;19.52;61.35;97598.00;10351702;28;20383;-62
2022/10/29 00:22:53;;;;;;;2.35;2.00;;;;;;;19.52;61.24;97591.78;10337829;28;20134;-61
2022/10/29 00:28:12;;;;;;;2.10;1.90;;;;;;;19.51;61.26;97611.81;10338197;28;20130;-62
2022/10/29 00:33:32;;;;;;;2.15;1.98;;;;;;;19.50;61.25;97611.00;10338036;28;20058;-62
2022/10/29 00:38:52;;;;;;;2.20;2.00;;;;;;;19.50;61.26;97605.59;10338995;28;20472;-62
2022/10/29 00:44:34;;;;;;;2.05;1.88;;;;;;;19.50;61.32;97605.59;10378132;28;20061;-62
2022/10/29 00:50:08;;;;;;;2.00;1.80;;;;;;;19.49;61.25;97608.59;10309952;28;20057;-61
2022/10/29 00:55:27;;;;;;;2.00;1.90;;;;;;;19.48;61.27;97599.72;10282529;28;20527;-62
2022/10/29 01:00:46;;;;;;;2.08;1.88;;;;;;;19.48;61.22;97597.00;10309988;28;20065;-54
2022/10/29 01:06:06;;;;;;;2.08;1.90;;;;;;;19.47;61.28;97591.91;10282085;28;20055;-54
2022/10/29 01:11:47;;;;;;;1.88;1.70;;;;;;;19.47;61.20;97603.50;10295043;28;20058;-54
2022/10/29 01:17:44;;;;;;;2.10;2.00;;;;;;;19.46;61.17;97599.19;10295984;28;20407;-55
2022/10/29 01:23:39;;;;;;;2.20;2.00;;;;;;;19.45;61.21;97592.19;10308870;28;20059;-54
2022/10/29 01:29:10;;;;;;;1.80;1.70;;;;;;;19.44;61.24;97585.19;10295722;28;20059;-55
2022/10/29 01:34:37;;;;;;;2.00;1.73;;;;;;;19.45;61.16;97603.00;10307597;28;20061;-54
2022/10/29 01:40:29;;;;;;;1.75;1.65;;;;;;;19.44;61.20;97589.78;10358694;28;20421;-54
2022/10/29 01:45:54;;;;;;;1.80;1.70;;;;;;;19.43;61.08;97583.59;10361622;28;20069;-56
2022/10/29 01:51:27;;;;;;;2.10;1.90;;;;;;;19.42;61.13;97576.56;10320334;28;20054;-54
2022/10/29 01:56:57;;;;;;;2.20;1.88;;;;;;;19.43;61.16;97583.59;10346742;28;20061;-54
2022/10/29 02:02:31;;;;;;;2.05;1.85;;;;;;;19.42;61.07;97579.28;10334669;28;20129;-54
2022/10/29 02:08:15;;;;;;;1.92;1.73;;;;;;;19.41;61.14;97580.41;10347312;28;20410;-55
2022/10/29 02:13:40;;;;;;;1.88;1.60;;;;;;;19.41;61.07;97575.00;10333754;28;20062;-54
2022/10/29 02:18:59;;;;;;;1.75;1.65;;;;;;;19.41;61.12;97572.28;10334083;28;20109;-54
2022/10/29 02:24:18;;;;;;;1.75;1.65;;;;;;;19.40;61.11;97567.97;10346788;28;20406;-54
2022/10/29 02:29:37;;;;;;;2.35;1.70;;;;;;;19.40;61.03;97556.38;10332771;28;20058;-54
2022/10/29 02:34:57;;;;;;;2.53;1.85;;;;;;;19.39;61.20;97549.38;10332925;28;20502;-54
2022/10/29 02:40:16;;;;;;;2.42;1.75;;;;;;;19.39;61.01;97550.19;10359112;28;20061;-55
2022/10/29 02:45:35;;;;;;;1.90;1.77;;;;;;;19.39;61.02;97555.59;10362356;28;20061;-54
2022/10/29 02:50:55;;;;;;;1.60;1.50;;;;;;;19.39;60.95;97554.78;10333120;28;20054;-54
2022/10/29 02:56:14;;;;;;;2.17;1.80;;;;;;;19.37;61.02;97552.38;10345938;28;20050;-54
2022/10/29 03:01:33;;;;;;;1.95;1.75;;;;;;;19.36;61.05;97551.56;10332970;28;20152;-54
2022/10/29 03:06:53;;;;;;;2.17;1.70;;;;;;;19.36;61.13;97545.38;10345869;28;20418;-54
2022/10/29 03:12:12;;;;;;;2.00;1.80;;;;;;;19.37;61.03;97541.59;10331909;28;20061;-54
2022/10/29 03:17:32;;;;;;;1.75;1.65;;;;;;;19.37;61.08;97538.88;10332614;28;20058;-55
2022/10/29 03:22:51;;;;;;;1.73;1.63;;;;;;;19.35;61.03;97528.38;10345444;28;20050;-54
2022/10/29 03:28:10;;;;;;;1.90;1.80;;;;;;;19.34;60.95;97523.28;10332141;28;20449;-55
2022/10/29 03:33:29;;;;;;;1.88;1.77;;;;;;;19.34;61.03;97518.66;10331698;28;20062;-55
2022/10/29 03:38:49;;;;;;;1.73;1.63;;;;;;;19.33;61.01;97527.09;10333066;28;20410;-54
2022/10/29 03:44:08;;;;;;;1.88;1.77;;;;;;;19.34;61.00;97523.28;10379547;28;20077;-55
2022/10/29 03:49:27;;;;;;;1.83;1.73;;;;;;;19.33;61.02;97524.38;10299585;28;20121;-55
2022/10/29 03:54:46;;;;;;;2.05;1.85;;;;;;;19.33;60.96;97529.78;10299463;28;20055;-54
2022/10/29 04:00:06;;;;;;;1.80;1.70;;;;;;;19.32;61.14;97545.19;10299211;28;20058;-54
2022/10/29 04:05:32;;;;;;;1.70;1.60;;;;;;;19.32;61.05;97530.88;10299117;28;20066;-54
2022/10/29 04:10:52;;;;;;;2.00;1.80;;;;;;;19.31;61.07;97529.28;10298049;28;20078;-54
2022/10/29 04:16:11;;;;;;;1.60;1.50;;;;;;;19.30;61.04;97525.78;10298602;28;20061;-54
2022/10/29 04:21:31;;;;;;;2.05;1.83;;;;;;;19.30;61.02;97530.38;10298474;28;20058;-54
2022/10/29 04:26:50;;;;;;;1.80;1.60;;;;;;;19.28;60.93;97527.97;10298362;28;20082;-54
2022/10/29 04:32:09;;;;;;;1.80;1.70;;;;;;;19.29;60.91;97539.63;10297844;28;20082;-54
2022/10/29 04:37:28;;;;;;;2.08;1.88;;;;;;;19.29;60.96;97545.00;10297622;28;20066;-54
2022/10/29 04:42:48;;;;;;;1.90;1.70;;;;;;;19.28;60.94;97548.81;10364075;28;20057;-54
2022/10/29 04:48:07;;;;;;;1.63;1.52;;;;;;;19.27;60.93;97548.00;10359151;28;20137;-54
2022/10/29 04:53:27;;;;;;;1.58;1.48;;;;;;;19.27;60.94;97541.81;10336650;28;20063;-54
2022/10/29 04:58:50;;;;;;;1.70;1.60;;;;;;;19.26;60.92;97545.59;10350174;28;20391;-55
2022/10/29 05:04:09;;;;;;;1.77;1.60;;;;;;;19.26;60.93;97553.72;10335216;28;20068;-54
2022/10/29 05:09:28;;;;;;;1.75;1.65;;;;;;;19.25;60.99;97550.22;10336431;28;20059;-54
2022/10/29 05:14:48;;;;;;;1.90;1.70;;;;;;;19.25;60.95;97554.81;10336024;28;20073;-54
2022/10/29 05:20:08;;;;;;;2.70;2.00;;;;;;;19.25;60.95;97560.19;10336163;28;20058;-54
2022/10/29 05:25:27;;;;;;;2.00;1.80;;;;;;;19.24;60.95;97564.03;10349130;28;20518;-54
2022/10/29 05:30:49;;;;;;;1.77;1.50;;;;;;;19.24;60.96;97555.91;10335961;28;20058;-54
2022/10/29 05:36:09;;;;;;;1.50;1.40;;;;;;;19.23;60.92;97557.84;10335757;28;20074;-54
2022/10/29 05:41:28;;;;;;;1.60;1.50;;;;;;;19.22;61.06;97564.31;10357340;28;20073;-54
2022/10/29 05:46:48;;;;;;;1.75;1.65;;;;;;;19.22;60.91;97571.63;10354679;28;20055;-54
2022/10/29 05:52:08;;;;;;;1.77;1.67;;;;;;;19.21;60.94;97572.72;10335057;28;20421;-54
2022/10/29 05:57:27;;;;;;;1.70;1.60;;;;;;;19.22;60.92;97574.34;10334714;28;20054;-54
2022/10/29 06:02:47;;;;;;;1.70;1.40;;;;;;;19.23;61.06;97584.84;10347566;28;20054;-55
2022/10/29 06:08:06;;;;;;;1.90;1.75;;;;;;;19.22;60.94;97587.84;10334409;28;20392;-54
2022/10/29 06:13:26;;;;;;;1.60;1.50;;;;;;;19.23;60.90;97586.72;10333621;28;20062;-55
2022/10/29 06:18:45;;;;;;;1.52;1.42;;;;;;;19.23;60.90;97584.84;10333285;28;20506;-55
2022/10/29 06:24:05;;;;;;;1.70;1.60;;;;;;;19.23;60.78;97598.34;10347420;28;20046;-55
2022/10/29 06:29:24;;;;;;;1.50;1.40;;;;;;;19.25;60.87;97600.72;10333740;28;20058;-54
2022/10/29 06:34:43;;;;;;;1.60;1.50;;;;;;;19.26;60.78;97592.31;10333540;28;20085;-54
2022/10/29 06:40:03;;;;;;;1.50;1.40;;;;;;;19.28;60.80;97610.94;10344381;28;20050;-54
2022/10/29 06:45:23;;;;;;;1.63;1.52;;;;;;;19.29;60.82;97599.03;10364203;28;20061;-54
2022/10/29 06:50:42;;;;;;;1.38;1.27;;;;;;;19.32;60.84;97603.81;10332523;28;20502;-54
2022/10/29 06:56:02;;;;;;;1.45;1.35;;;;;;;19.32;60.74;97603.81;10333035;28;20062;-54
2022/10/29 07:01:22;;;;;;;1.65;1.55;;;;;;;19.33;60.85;97600.81;10345946;28;20449;-54
2022/10/29 07:06:41;;;;;;;1.77;1.67;;;;;;;19.35;60.80;97606.72;10332817;28;20054;-54
2022/10/29 07:12:00;;;;;;;1.70;1.60;;;;;;;19.37;60.82;97606.44;10331865;28;20058;-54
2022/10/29 07:17:20;;;;;;;1.70;1.60;;;;;;;19.40;60.76;97607.72;10337060;28;20066;-55
2022/10/29 07:22:39;;;;;;;1.60;1.50;;;;;;;19.41;60.75;97615.53;10340816;28;20109;-55
2022/10/29 07:28:04;;;;;;;2.33;1.80;;;;;;;19.44;60.91;97620.31;10340604;28;20091;-55
2022/10/29 07:33:23;;;;;;;1.65;1.52;;;;;;;19.45;60.64;97619.22;10340385;28;20061;-54
2022/10/29 07:38:42;;;;;;;2.03;1.83;;;;;;;19.48;60.88;97618.63;10340265;28;20446;-54
2022/10/29 07:44:02;;;;;;;1.73;1.55;;;;;;;19.49;60.72;97614.81;10380515;28;20065;-55
2022/10/29 07:49:21;;;;;;;1.50;1.40;;;;;;;19.51;60.91;97631.50;10299578;28;20062;-54
2022/10/29 07:54:41;;;;;;;1.60;1.50;;;;;;;19.53;60.72;97637.41;10299395;28;20062;-54
2022/10/29 08:00:01;;;;;;;2.85;1.70;;;;;;;19.55;60.76;97646.03;10298637;28;20055;-54
2022/10/29 08:05:21;;;;;;;1.60;1.50;;;;;;;19.57;60.77;97651.13;10298435;28;20065;-55
2022/10/29 08:10:40;;;;;;;1.73;1.63;;;;;;;19.59;60.83;97657.03;10329642;28;20524;-54
2022/10/29 08:15:59;;;;;;;1.60;1.50;;;;;;;19.62;60.84;97655.63;10339257;28;20445;-54
2022/10/29 08:21:19;;;;;;;1.60;1.50;;;;;;;19.64;60.74;97653.41;10338912;28;20129;-54
2022/10/29 08:26:38;;;;;;;1.67;1.58;;;;;;;19.65;60.88;97641.50;10337115;28;20062;-54
2022/10/29 08:31:57;;;;;;;1.52;1.42;;;;;;;19.66;60.81;97635.78;10337939;28;20525;-55
2022/10/29 08:37:17;;;;;;;1.60;1.50;;;;;;;19.69;60.83;97626.28;10338368;28;20104;-54
2022/10/29 08:42:45;;;;;;;1.50;1.40;;;;;;;19.71;60.69;97629.47;10369866;28;20054;-54
2022/10/29 08:48:29;;;;;;;1.50;1.40;;;;;;;19.73;60.67;97621.88;10346360;28;20054;-55
2022/10/29 08:53:51;;;;;;;1.30;1.20;;;;;;;19.75;60.71;97627.78;10350758;28;20475;-54
2022/10/29 08:59:20;;;;;;;1.55;1.45;;;;;;;19.77;60.55;97627.47;10337497;28;20090;-54
2022/10/29 09:04:39;;;;;;;1.55;1.45;;;;;;;19.79;60.74;97634.16;10337137;28;20054;-54
2022/10/29 09:10:09;;;;;;;1.38;1.27;;;;;;;19.81;60.71;97629.25;10336408;28;20064;-54
2022/10/29 09:15:47;;;;;;;1.52;1.42;;;;;;;19.83;60.68;97629.75;10350299;28;20069;-54
2022/10/29 09:21:17;;;;;;;1.60;1.50;;;;;;;19.84;60.81;97631.38;10322057;28;20058;-54
2022/10/29 09:26:46;;;;;;;1.50;1.40;;;;;;;19.86;60.57;97634.56;10336604;28;20065;-54
2022/10/29 09:32:10;;;;;;;1.60;1.50;;;;;;;19.87;60.50;97619.91;10336326;28;20081;-55
2022/10/29 09:37:39;;;;;;;1.73;1.63;;;;;;;19.91;60.52;97623.59;10335863;28;20101;-54
2022/10/29 09:43:04;;;;;;;1.48;1.38;;;;;;;19.92;60.52;97622.53;10383790;28;20058;-54
2022/10/29 09:48:35;;;;;;;1.50;1.40;;;;;;;19.93;60.46;97618.72;10341935;28;20058;-54
2022/10/29 09:53:55;;;;;;;2.65;1.15;;;;;;;19.94;60.54;97606.78;10320798;28;20462;-55
2022/10/29 09:59:17;;;;;;;2.33;1.30;;;;;;;19.97;60.43;97601.88;10334905;28;20054;-56
2022/10/29 10:04:40;;;;;;;1.60;1.50;;;;;;;19.99;60.46;97589.63;10335093;28;20080;-54
2022/10/29 10:10:01;;;;;;;1.42;1.33;;;;;;;20.01;60.35;97583.91;10329722;28;20109;-54
2022/10/29 10:15:27;;;;;;;1.40;1.30;;;;;;;20.02;60.38;97593.63;10334547;28;20065;-55
2022/10/29 10:21:11;;;;;;;1.40;1.30;;;;;;;20.03;60.37;97581.69;10334587;28;20058;-54
2022/10/29 10:26:44;;;;;;;1.23;1.13;;;;;;;20.05;60.40;97572.19;10334332;28;20426;-54
2022/10/29 10:32:03;;;;;;;1.95;1.40;;;;;;;20.07;60.28;97574.56;10333999;28;20064;-54
2022/10/29 10:37:23;;;;;;;1.30;1.20;;;;;;;20.08;60.39;97566.16;10333110;28;20522;-54
2022/10/29 10:42:45;;;;;;;1.40;1.30;;;;;;;20.10;60.26;97573.97;10365942;28;20498;-54
2022/10/29 10:48:08;;;;;;;1.42;1.33;;;;;;;20.12;60.24;97580.66;10355553;28;20061;-54
2022/10/29 10:53:27;;;;;;;1.42;1.33;;;;;;;20.14;60.25;97575.72;10330977;28;20050;-54
2022/10/29 10:59:06;;;;;;;1.10;1.10;;;;;;;20.16;60.27;97567.31;10332859;28;20109;-54
2022/10/29 11:04:36;;;;;;;1.30;1.20;;;;;;;20.18;60.26;97567.00;10332316;28;20116;-54
2022/10/29 11:09:56;;;;;;;1.17;1.05;;;;;;;20.20;60.24;97554.75;10332858;28;20093;-54
2022/10/29 11:15:35;;;;;;;1.30;1.20;;;;;;;20.21;60.23;97553.66;10331267;28;20053;-55
2022/10/29 11:21:13;;;;;;;1.27;1.17;;;;;;;20.23;60.17;97561.44;10344714;28;20059;-54
2022/10/29 11:26:57;;;;;;;1.00;1.00;;;;;;;20.24;60.25;97547.63;10318093;28;20081;-54
2022/10/29 11:32:21;;;;;;;1.08;1.05;;;;;;;20.25;60.28;97548.44;10330919;28;20065;-54
2022/10/29 11:37:51;;;;;;;1.30;1.20;;;;;;;20.26;60.20;97536.50;10330910;28;20058;-54
2022/10/29 11:43:12;;;;;;;1.38;1.27;;;;;;;20.26;60.14;97531.88;10380954;28;20056;-54
2022/10/29 11:49:05;;;;;;;1.20;1.10;;;;;;;20.28;60.12;97520.75;10337491;28;20074;-55
2022/10/29 11:55:02;;;;;;;1.20;1.10;;;;;;;20.28;60.16;97521.53;10331464;28;20502;-54
2022/10/29 12:00:23;;;;;;;1.10;1.00;;;;;;;20.30;60.25;97510.41;10331391;28;20065;-55
2022/10/29 12:06:13;;;;;;;1.20;1.10;;;;;;;20.30;60.20;97503.06;10324424;28;20514;-54
2022/10/29 12:11:57;;;;;;;1.67;1.10;;;;;;;20.30;60.26;97496.88;10344830;28;20046;-54
2022/10/29 12:17:31;;;;;;;1.20;1.10;;;;;;;20.30;60.16;97497.66;10339415;28;20058;-54
2022/10/29 12:22:59;;;;;;;0.93;0.90;;;;;;;20.31;60.31;97487.66;10352030;28;20090;-54
2022/10/29 12:28:28;;;;;;;1.08;1.00;;;;;;;20.32;60.28;97483.84;10338207;28;20529;-54
2022/10/29 12:33:54;;;;;;;1.25;1.15;;;;;;;20.32;60.24;97484.63;10338228;28;20050;-54
2022/10/29 12:39:25;;;;;;;1.30;1.20;;;;;;;20.32;60.25;97484.63;10341611;28;20053;-54
2022/10/29 12:45:12;;;;;;;1.10;1.10;;;;;;;20.32;60.17;97473.81;10386721;28;20046;-54
2022/10/29 12:50:44;;;;;;;1.27;1.17;;;;;;;20.33;60.30;97469.22;10322459;28;20061;-54
2022/10/29 12:56:05;;;;;;;1.00;1.00;;;;;;;20.31;60.35;97466.81;10337863;28;20066;-54
2022/10/29 13:01:24;;;;;;;1.20;1.10;;;;;;;20.32;60.35;97454.84;10336407;28;20054;-54
2022/10/29 13:06:45;;;;;;;1.35;1.20;;;;;;;20.32;60.23;97449.44;10337286;28;20054;-54
2022/10/29 13:12:08;;;;;;;1.30;1.20;;;;;;;20.32;60.36;97452.16;10336677;28;20133;-54
2022/10/29 13:17:31;;;;;;;1.20;1.10;;;;;;;20.34;60.37;97462.66;10348828;28;20490;-54
2022/10/29 13:22:56;;;;;;;1.15;1.05;;;;;;;20.34;60.40;97449.94;10336366;28;20062;-54
2022/10/29 13:28:15;;;;;;;1.00;1.00;;;;;;;20.33;60.33;97442.16;10336377;28;20421;-55
2022/10/29 13:33:34;;;;;;;1.20;1.10;;;;;;;20.32;60.34;97441.31;10349178;28;20473;-54
2022/10/29 13:38:54;;;;;;;1.20;1.08;;;;;;;20.32;60.34;97432.41;10350699;28;20486;-55
2022/10/29 13:44:21;;;;;;;0.80;0.80;;;;;;;20.32;60.42;97430.50;10375781;28;20061;-55
2022/10/29 13:49:45;;;;;;;1.10;1.00;;;;;;;20.33;60.40;97436.72;10307895;28;20046;-54
2022/10/29 13:55:06;;;;;;;1.10;1.10;;;;;;;20.32;60.43;97433.22;10294078;28;20133;-54
2022/10/29 14:00:27;;;;;;;1.10;1.00;;;;;;;20.32;60.49;97438.63;10294838;28;20069;-54
2022/10/29 14:06:08;;;;;;;1.00;1.00;;;;;;;20.31;60.38;97428.13;10280434;28;20082;-54
2022/10/29 14:11:37;;;;;;;1.00;1.00;;;;;;;20.32;60.41;97429.72;10279375;28;20062;-54
2022/10/29 14:17:17;;;;;;;1.23;1.17;;;;;;;20.31;60.38;97428.13;10294369;28;20063;-54
2022/10/29 14:22:37;;;;;;;1.20;1.10;;;;;;;20.31;60.41;97423.50;10294140;28;20066;-54
2022/10/29 14:28:17;;;;;;;0.85;0.85;;;;;;;20.30;60.50;97424.59;10293099;28;20133;-54
2022/10/29 14:33:38;;;;;;;0.80;0.80;;;;;;;20.31;60.49;97428.13;10306584;28;20050;-55
2022/10/29 14:39:10;;;;;;;1.10;1.00;;;;;;;20.30;60.39;97427.31;10297748;28;20063;-54
2022/10/29 14:44:33;;;;;;;0.98;0.98;;;;;;;20.30;60.44;97426.53;10323967;28;20055;-54
2022/10/29 14:49:54;;;;;;;1.13;1.02;;;;;;;20.30;60.42;97424.59;10278588;28;20059;-55
2022/10/29 14:55:17;;;;;;;1.00;1.00;;;;;;;20.28;60.43;97424.13;10293075;28;20093;-54
2022/10/29 15:00:38;;;;;;;1.23;1.00;;;;;;;20.29;60.48;97422.25;10292208;28;20530;-54
2022/10/29 15:06:19;;;;;;;0.98;0.98;;;;;;;20.27;60.47;97411.72;10292665;28;20129;-54
2022/10/29 15:11:41;;;;;;;1.10;1.00;;;;;;;20.27;60.48;97425.25;10292144;28;20055;-54
2022/10/29 15:17:07;;;;;;;1.20;1.10;;;;;;;20.26;60.41;97423.66;10292519;28;20067;-53
2022/10/29 15:22:33;;;;;;;0.82;0.82;;;;;;;20.26;60.52;97426.34;10305226;28;20399;-54
2022/10/29 15:27:53;;;;;;;1.10;1.02;;;;;;;20.26;60.56;97418.22;10291904;28;20059;-54
2022/10/29 15:33:17;;;;;;;1.60;1.50;;;;;;;20.26;60.35;97425.56;10291851;28;20076;-55
2022/10/29 15:39:04;;;;;;;1.33;1.20;;;;;;;20.25;60.40;97424.78;10297017;28;20093;-54
2022/10/29 15:44:36;;;;;;;1.15;1.05;;;;;;;20.25;60.22;97424.78;10299652;28;20430;-54
2022/10/29 15:49:55;;;;;;;1.13;1.02;;;;;;;20.24;60.31;97422.38;10339320;28;20529;-54
2022/10/29 15:55:14;;;;;;;1.30;1.20;;;;;;;20.24;60.34;97431.28;10339674;28;20064;-54
2022/10/29 16:00:34;;;;;;;1.50;1.20;;;;;;;20.23;60.23;97431.59;10352345;28;20490;-54
2022/10/29 16:06:02;;;;;;;1.20;1.10;;;;;;;20.23;60.20;97431.59;10339182;28;20065;-54
2022/10/29 16:11:22;;;;;;;2.07;1.30;;;;;;;20.23;60.29;97443.22;10323544;28;20051;-54
2022/10/29 16:16:41;;;;;;;1.25;1.10;;;;;;;20.22;60.24;97444.31;10338505;28;20074;-54
2022/10/29 16:22:01;;;;;;;1.40;1.20;;;;;;;20.22;60.24;97448.94;10323944;28;20138;-54
2022/10/29 16:27:20;;;;;;;1.52;1.33;;;;;;;20.22;60.27;97448.94;10350993;28;20113;-55
2022/10/29 16:32:41;;;;;;;1.30;1.20;;;;;;;20.21;60.26;97448.16;10338297;28;20058;-54
2022/10/29 16:38:01;;;;;;;1.30;1.20;;;;;;;20.20;60.33;97446.53;10296873;28;20055;-54
2022/10/29 16:43:20;;;;;;;0.93;0.90;;;;;;;20.19;60.31;97436.84;10358175;28;20054;-54
2022/10/29 16:48:39;;;;;;;1.30;1.20;;;;;;;20.19;60.22;97444.97;10340277;28;20494;-54
2022/10/29 16:53:59;;;;;;;3.17;2.53;;;;;;;20.18;60.20;97440.66;10322219;28;20529;-54
2022/10/29 16:59:18;;;;;;;1.77;1.30;;;;;;;20.18;60.15;97445.28;10337365;28;20069;-54
2022/10/29 17:04:38;;;;;;;1.83;1.60;;;;;;;20.19;60.16;97446.84;10337189;28;20058;-54
2022/10/29 17:09:57;;;;;;;1.80;1.55;;;;;;;20.17;60.06;97449.06;10336641;28;20059;-54
2022/10/29 17:15:17;;;;;;;1.75;1.55;;;;;;;20.16;60.18;97445.56;10349780;28;20058;-54
2022/10/29 17:20:37;;;;;;;1.70;1.60;;;;;;;20.15;60.10;97441.28;10336564;28;20054;-54
2022/10/29 17:25:57;;;;;;;1.70;1.60;;;;;;;20.16;60.10;97445.56;10336327;28;20069;-54
2022/10/29 17:31:16;;;;;;;2.05;1.80;;;;;;;20.14;60.18;97445.09;10335854;28;20050;-54
2022/10/29 17:36:39;;;;;;;1.65;1.55;;;;;;;20.14;60.11;97450.50;10335308;28;20491;-54
2022/10/29 17:41:59;;;;;;;2.08;1.45;;;;;;;20.12;60.13;97452.72;10375403;28;20560;-54
2022/10/29 17:47:20;;;;;;;1.98;1.52;;;;;;;20.12;60.13;97455.44;10350078;28;20518;-54
2022/10/29 17:52:40;;;;;;;2.47;1.80;;;;;;;20.11;60.13;97451.13;10348527;28;20046;-54
2022/10/29 17:57:59;;;;;;;2.17;1.52;;;;;;;20.11;60.08;97451.13;10334649;28;20502;-54
2022/10/29 18:03:19;;;;;;;3.60;1.70;;;;;;;20.10;60.15;97449.53;10334772;28;20425;-55
2022/10/29 18:08:40;;;;;;;1.60;1.50;;;;;;;20.10;60.19;97449.53;10334081;28;20603;-54
2022/10/29 18:13:59;;;;;;;2.42;1.70;;;;;;;20.10;60.15;97457.66;10334221;28;20062;-54
2022/10/29 18:19:19;;;;;;;1.75;1.60;;;;;;;20.10;60.21;97449.53;10333736;28;20568;-54
2022/10/29 18:24:38;;;;;;;1.85;1.73;;;;;;;20.08;60.15;97441.72;10334285;28;20054;-54
2022/10/29 18:29:57;;;;;;;1.80;1.58;;;;;;;20.08;60.17;97446.34;10333912;28;20070;-54
2022/10/29 18:35:16;;;;;;;3.33;1.60;;;;;;;20.08;60.25;97444.44;10334096;28;20058;-55
2022/10/29 18:40:35;;;;;;;2.10;1.50;;;;;;;20.07;60.19;97437.44;10362078;28;20409;-54
2022/10/29 18:46:00;;;;;;;2.97;1.70;;;;;;;20.06;60.22;97435.03;10360097;28;20084;-54
2022/10/29 18:51:25;;;;;;;3.40;1.52;;;;;;;20.05;60.25;97428.03;10333510;28;20057;-55
2022/10/29 18:56:45;;;;;;;1.70;1.60;;;;;;;20.06;60.25;97432.34;10346430;28;20125;-54
2022/10/29 19:02:05;;;;;;;2.03;1.40;;;;;;;20.05;60.16;97428.03;10333258;28;20057;-54
2022/10/29 19:07:27;;;;;;;2.13;1.48;;;;;;;20.04;60.20;97435.34;10333006;28;20058;-54
2022/10/29 19:12:46;;;;;;;1.92;1.60;;;;;;;20.02;60.24;97437.56;10341388;28;20517;-55
2022/10/29 19:18:05;;;;;;;1.50;1.40;;;;;;;20.03;60.17;97441.06;10359138;28;20532;-54
2022/10/29 19:23:25;;;;;;;1.98;1.50;;;;;;;20.02;60.20;97439.47;10345534;28;20491;-54
2022/10/29 19:28:45;;;;;;;1.80;1.45;;;;;;;20.02;60.18;97434.06;10358943;28;20046;-54
2022/10/29 19:34:06;;;;;;;1.60;1.50;;;;;;;20.01;60.26;97437.88;10345272;28;20136;-53
2022/10/29 19:39:25;;;;;;;1.35;1.25;;;;;;;20.02;60.18;97436.78;10364721;28;20519;-54
2022/10/29 19:44:45;;;;;;;1.75;1.40;;;;;;;20.01;60.10;97443.28;10381762;28;20062;-54
2022/10/29 19:50:07;;;;;;;1.60;1.45;;;;;;;20.01;60.13;97435.16;10345600;28;20117;-55
2022/10/29 19:55:26;;;;;;;1.60;1.40;;;;;;;19.98;60.15;97436.59;10358590;28;20387;-54
2022/10/29 20:00:46;;;;;;;1.95;1.40;;;;;;;19.99;60.11;97434.69;10358391;28;20061;-54
2022/10/29 20:06:07;;;;;;;2.13;1.50;;;;;;;19.98;60.16;97433.09;10344770;28;20569;-54
2022/10/29 20:11:27;;;;;;;1.50;1.30;;;;;;;19.97;60.11;97434.19;10344511;28;20058;-54
2022/10/29 20:16:46;;;;;;;3.00;1.50;;;;;;;19.97;60.25;97445.00;10358137;28;20482;-54
2022/10/29 20:22:06;;;;;;;1.45;1.30;;;;;;;19.96;60.18;97436.09;10343887;28;20062;-54
2022/10/29 20:27:25;;;;;;;1.60;1.50;;;;;;;19.95;60.31;97439.91;10324242;28;20058;-54
2022/10/29 20:32:44;;;;;;;1.63;1.50;;;;;;;19.94;60.12;97441.81;10320328;28;20062;-54
2022/10/29 20:38:04;;;;;;;1.98;1.50;;;;;;;19.94;60.15;97441.81;10338056;28;20422;-54
2022/10/29 20:43:24;;;;;;;1.42;1.33;;;;;;;19.94;60.09;97439.13;10376304;28;20054;-54
2022/10/29 20:48:43;;;;;;;1.80;1.70;;;;;;;19.94;60.12;97439.13;10354474;28;20490;-54
2022/10/29 20:54:02;;;;;;;1.40;1.30;;;;;;;19.93;60.13;97440.25;10337646;28;20058;-55
2022/10/29 20:59:22;;;;;;;1.60;1.50;;;;;;;19.94;60.13;97447.22;10350355;28;20100;-54
2022/10/29 21:04:41;;;;;;;1.52;1.42;;;;;;;19.94;60.08;97441.81;10350163;28;20061;-54
2022/10/29 21:10:01;;;;;;;1.60;1.50;;;;;;;19.95;60.20;97438.03;10336662;28;20058;-54
2022/10/29 21:15:20;;;;;;;1.77;1.50;;;;;;;19.96;60.11;97444.22;10336636;28;20058;-54
2022/10/29 21:20:39;;;;;;;1.60;1.42;;;;;;;19.95;60.08;97438.03;10349559;28;20062;-54
2022/10/29 21:25:58;;;;;;;1.58;1.30;;;;;;;19.97;60.08;97434.19;10336344;28;20070;-54
2022/10/29 21:31:19;;;;;;;2.13;1.63;;;;;;;19.98;60.10;97438.50;10336235;28;20062;-55
2022/10/29 21:36:38;;;;;;;1.70;1.60;;;;;;;19.99;60.02;97431.97;10334838;28;20066;-54
2022/10/29 21:41:58;;;;;;;1.58;1.40;;;;;;;19.99;59.97;97432.75;10375321;28;20061;-54
2022/10/29 21:47:17;;;;;;;1.65;1.50;;;;;;;19.98;59.94;97425.00;10350376;28;20421;-54
2022/10/29 21:52:36;;;;;;;7.60;6.68;;;;;;;19.97;58.72;97424.16;10348232;28;20052;-54
2022/10/29 21:57:56;;;;;;;2.70;1.90;;;;;;;19.98;59.37;97422.28;10335117;28;20062;-54
2022/10/29 22:03:15;;;;;;;2.53;2.30;;;;;;;19.99;59.52;97413.84;10334313;28;20050;-54
2022/10/29 22:08:34;;;;;;;4.10;3.53;;;;;;;20.00;59.45;97414.66;10347696;28;20418;-54
2022/10/29 22:13:54;;;;;;;4.53;3.60;;;;;;;20.00;59.36;97417.34;10334365;28;20069;-54
2022/10/29 22:19:14;;;;;;;4.18;3.30;;;;;;;20.00;59.52;97422.75;10334447;28;20406;-54
2022/10/29 22:24:33;;;;;;;4.45;3.38;;;;;;;20.00;59.45;97417.34;10333456;28;20498;-54
2022/10/29 22:29:53;;;;;;;3.70;3.17;;;;;;;20.00;59.40;97422.75;10333956;28;20501;-54
2022/10/29 22:35:13;;;;;;;4.05;3.65;;;;;;;19.99;59.43;97416.53;10333804;28;20062;-55
2022/10/29 22:40:39;;;;;;;3.47;3.00;;;;;;;19.99;59.47;97413.84;10347908;28;20058;-54
2022/10/29 22:45:58;;;;;;;4.38;2.95;;;;;;;20.00;59.53;97406.53;10358668;28;20061;-54
2022/10/29 22:51:20;;;;;;;3.40;2.80;;;;;;;19.99;59.45;97405.72;10346238;28;20046;-54
2022/10/29 22:56:40;;;;;;;3.53;2.95;;;;;;;19.99;59.48;97416.53;10346133;28;20050;-55
2022/10/29 23:01:59;;;;;;;3.50;2.75;;;;;;;19.99;59.43;97415.75;10333010;28;20081;-54
2022/10/29 23:07:18;;;;;;;3.00;2.70;;;;;;;19.99;59.54;97426.56;10332680;28;20076;-54
2022/10/29 23:12:38;;;;;;;3.78;2.72;;;;;;;19.99;59.62;97421.94;10332117;28;20058;-54
2022/10/29 23:17:57;;;;;;;3.80;3.20;;;;;;;19.98;59.55;97423.06;10345721;28;20050;-54
2022/10/29 23:23:16;;;;;;;3.33;2.78;;;;;;;19.99;59.59;97421.16;10332706;28;20050;-54
2022/10/29 23:28:37;;;;;;;3.30;3.00;;;;;;;19.99;59.60;97415.75;10332058;28;20059;-54
2022/10/29 23:33:57;;;;;;;2.95;2.67;;;;;;;19.97;59.62;97413.34;10345271;28;20056;-54
2022/10/29 23:39:16;;;;;;;3.20;2.60;;;;;;;19.98;59.53;97411.47;10336945;28;20061;-54
2022/10/29 23:44:36;;;;;;;3.40;2.75;;;;;;;19.98;59.58;97414.16;10369274;28;20061;-54
2022/10/29 23:49:55;;;;;;;3.58;2.78;;;;;;;19.97;59.56;97412.56;10332077;28;20051;-54
2022/10/29 23:55:14;;;;;;;3.33;2.90;;;;;;;19.95;59.48;97405.56;10345075;28;20494;-54
